sensor_id;sensor_type;location;lat;lon;timestamp;pressure;altitude;pressure_sealevel;temperature;humidity
43814;BME280;29669;55.706;37.656;2023-07-02T00:01:39;98243.50;;;19.14;63.03
43814;BME280;29669;55.706;37.656;2023-07-02T00:04:18;98244.78;;;19.07;63.37
43814;BME280;29669;55.706;37.656;2023-07-02T00:06:48;98244.69;;;18.97;63.61
43814;BME280;29669;55.706;37.656;2023-07-02T00:09:19;98250.47;;;18.94;63.73
43814;BME280;29669;55.706;37.656;2023-07-02T00:11:51;98244.41;;;18.88;64.04
43814;BME280;29669;55.706;37.656;2023-07-02T00:14:30;98249.38;;;18.85;64.17
43814;BME280;29669;55.706;37.656;2023-07-02T00:20:41;98251.13;;;18.74;64.64
43814;BME280;29669;55.706;37.656;2023-07-02T00:23:20;98251.63;;;18.71;64.64
43814;BME280;29669;55.706;37.656;2023-07-02T00:30:03;98243.38;;;18.57;64.87
43814;BME280;29669;55.706;37.656;2023-07-02T00:32:37;98251.25;;;18.57;65.15
43814;BME280;29669;55.706;37.656;2023-07-02T00:35:07;98253.59;;;18.54;65.21
43814;BME280;29669;55.706;37.656;2023-07-02T00:37:35;98253.25;;;18.45;65.56
43814;BME280;29669;55.706;37.656;2023-07-02T00:40:08;98265.50;;;18.40;66.09
43814;BME280;29669;55.706;37.656;2023-07-02T00:42:36;98268.41;;;18.38;66.33
43814;BME280;29669;55.706;37.656;2023-07-02T00:45:05;98268.09;;;18.35;66.47
43814;BME280;29669;55.706;37.656;2023-07-02T00:47:35;98263.59;;;18.30;66.77
43814;BME280;29669;55.706;37.656;2023-07-02T00:50:03;98259.63;;;18.28;66.72
43814;BME280;29669;55.706;37.656;2023-07-02T00:52:34;98262.50;;;18.26;66.99
43814;BME280;29669;55.706;37.656;2023-07-02T00:55:02;98267.22;;;18.24;66.94
43814;BME280;29669;55.706;37.656;2023-07-02T00:57:32;98271.69;;;18.24;67.03
43814;BME280;29669;55.706;37.656;2023-07-02T01:00:01;98267.22;;;18.24;66.92
43814;BME280;29669;55.706;37.656;2023-07-02T01:02:36;98275.59;;;18.21;67.17
43814;BME280;29669;55.706;37.656;2023-07-02T01:05:16;98292.94;;;18.22;67.21
43814;BME280;29669;55.706;37.656;2023-07-02T01:07:52;98278.72;;;18.18;67.57
43814;BME280;29669;55.706;37.656;2023-07-02T01:10:34;98282.06;;;18.14;67.50
43814;BME280;29669;55.706;37.656;2023-07-02T01:13:14;98283.13;;;18.13;67.94
43814;BME280;29669;55.706;37.656;2023-07-02T01:15:45;98277.63;;;18.14;67.84
43814;BME280;29669;55.706;37.656;2023-07-02T01:18:14;98276.53;;;18.10;67.93
43814;BME280;29669;55.706;37.656;2023-07-02T01:20:43;98281.28;;;18.13;68.28
43814;BME280;29669;55.706;37.656;2023-07-02T01:23:12;98285.50;;;18.14;68.28
43814;BME280;29669;55.706;37.656;2023-07-02T01:26:23;98275.25;;;18.13;68.32
43814;BME280;29669;55.706;37.656;2023-07-02T01:32:04;98278.09;;;18.11;68.23
43814;BME280;29669;55.706;37.656;2023-07-02T01:34:34;98284.41;;;18.10;68.67
43814;BME280;29669;55.706;37.656;2023-07-02T01:37:11;98282.56;;;18.11;68.59
43814;BME280;29669;55.706;37.656;2023-07-02T01:39:43;98278.66;;;18.13;68.73
43814;BME280;29669;55.706;37.656;2023-07-02T01:42:15;98287.56;;;18.12;68.85
43814;BME280;29669;55.706;37.656;2023-07-02T01:44:48;98281.78;;;18.10;69.25
43814;BME280;29669;55.706;37.656;2023-07-02T01:47:19;98286.53;;;18.13;68.91
43814;BME280;29669;55.706;37.656;2023-07-02T01:49:50;98298.13;;;18.17;68.91
43814;BME280;29669;55.706;37.656;2023-07-02T01:52:20;98289.75;;;18.20;69.11
43814;BME280;29669;55.706;37.656;2023-07-02T01:54:48;98287.44;;;18.24;68.98
43814;BME280;29669;55.706;37.656;2023-07-02T01:57:17;98285.34;;;18.26;68.91
43814;BME280;29669;55.706;37.656;2023-07-02T01:59:45;98294.88;;;18.32;68.74
43814;BME280;29669;55.706;37.656;2023-07-02T02:02:36;98292.78;;;18.34;68.98
43814;BME280;29669;55.706;37.656;2023-07-02T02:05:57;98292.03;;;18.38;68.57
43814;BME280;29669;55.706;37.656;2023-07-02T02:13:31;98309.75;;;18.48;68.16
43814;BME280;29669;55.706;37.656;2023-07-02T02:24:51;98289.13;;;18.61;68.14
43814;BME280;29669;55.706;37.656;2023-07-02T02:31:12;98288.56;;;18.91;nan
43814;BME280;29669;55.706;37.656;2023-07-02T02:34:09;98292.53;;;18.94;nan
43814;BME280;29669;55.706;37.656;2023-07-02T02:36:47;98282.50;;;18.91;nan
43814;BME280;29669;55.706;37.656;2023-07-02T02:39:26;98287.56;;;18.97;nan
43814;BME280;29669;55.706;37.656;2023-07-02T02:42:06;98287.38;;;19.04;nan
43814;BME280;29669;55.706;37.656;2023-07-02T02:44:36;98301.84;;;19.06;nan
43814;BME280;29669;55.706;37.656;2023-07-02T02:47:09;98297.16;;;19.13;nan
43814;BME280;29669;55.706;37.656;2023-07-02T02:49:45;98301.50;;;19.34;nan
43814;BME280;29669;55.706;37.656;2023-07-02T02:52:16;98298.94;;;19.44;nan
43814;BME280;29669;55.706;37.656;2023-07-02T02:54:45;98305.56;;;19.52;nan
43814;BME280;29669;55.706;37.656;2023-07-02T02:57:15;98299.56;;;19.56;nan
43814;BME280;29669;55.706;37.656;2023-07-02T02:59:46;98299.03;;;19.64;nan
43814;BME280;29669;55.706;37.656;2023-07-02T03:02:14;98299.88;;;19.70;nan
43814;BME280;29669;55.706;37.656;2023-07-02T03:04:55;98308.34;;;19.82;nan
43814;BME280;29669;55.706;37.656;2023-07-02T03:07:33;98306.25;;;19.89;nan
43814;BME280;29669;55.706;37.656;2023-07-02T03:10:07;98308.94;;;19.94;nan
43814;BME280;29669;55.706;37.656;2023-07-02T03:12:35;98308.66;;;19.91;nan
43814;BME280;29669;55.706;37.656;2023-07-02T03:15:04;98318.66;;;19.89;nan
43814;BME280;29669;55.706;37.656;2023-07-02T03:17:33;98312.59;;;19.93;nan
43814;BME280;29669;55.706;37.656;2023-07-02T03:20:02;98320.53;;;19.98;nan
43814;BME280;29669;55.706;37.656;2023-07-02T03:22:32;98321.03;;;19.95;nan
43814;BME280;29669;55.706;37.656;2023-07-02T03:25:00;98330.00;;;19.94;nan
43814;BME280;29669;55.706;37.656;2023-07-02T03:27:38;98330.00;;;20.04;nan
43814;BME280;29669;55.706;37.656;2023-07-02T03:30:22;98331.09;;;20.03;nan
43814;BME280;29669;55.706;37.656;2023-07-02T03:33:09;98321.84;;;20.01;nan
43814;BME280;29669;55.706;37.656;2023-07-02T03:36:13;98332.38;;;20.01;nan
43814;BME280;29669;55.706;37.656;2023-07-02T03:38:44;98327.31;;;19.89;nan
43814;BME280;29669;55.706;37.656;2023-07-02T03:41:14;98331.78;;;19.79;nan
43814;BME280;29669;55.706;37.656;2023-07-02T03:43:42;98329.84;;;19.64;nan
43814;BME280;29669;55.706;37.656;2023-07-02T03:46:10;98345.41;;;19.65;nan
43814;BME280;29669;55.706;37.656;2023-07-02T03:48:38;98348.56;;;19.67;nan
43814;BME280;29669;55.706;37.656;2023-07-02T03:51:06;98346.22;;;19.71;nan
43814;BME280;29669;55.706;37.656;2023-07-02T03:53:34;98357.84;;;19.80;nan
43814;BME280;29669;55.706;37.656;2023-07-02T03:56:07;98346.75;;;19.78;nan
43814;BME280;29669;55.706;37.656;2023-07-02T04:05:03;98346.03;;;19.88;nan
43814;BME280;29669;55.706;37.656;2023-07-02T04:27:23;98372.28;;;20.29;62.74
43814;BME280;29669;55.706;37.656;2023-07-02T04:30:12;98380.72;;;20.26;62.57
43814;BME280;29669;55.706;37.656;2023-07-02T04:32:40;98371.22;;;20.20;62.68
43814;BME280;29669;55.706;37.656;2023-07-02T04:35:08;98371.50;;;20.24;62.52
43814;BME280;29669;55.706;37.656;2023-07-02T04:37:36;98374.97;;;20.44;62.09
43814;BME280;29669;55.706;37.656;2023-07-02T04:40:06;98374.50;;;20.63;61.78
43814;BME280;29669;55.706;37.656;2023-07-02T04:42:39;98374.53;;;20.83;61.23
43814;BME280;29669;55.706;37.656;2023-07-02T04:45:08;98373.50;;;21.09;60.87
43814;BME280;29669;55.706;37.656;2023-07-02T04:47:36;98385.63;;;21.50;60.08
43814;BME280;29669;55.706;37.656;2023-07-02T05:19:34;98388.22;;;21.65;58.47
43814;BME280;29669;55.706;37.656;2023-07-02T05:32:36;98381.44;;;21.14;58.72
43814;BME280;29669;55.706;37.656;2023-07-02T05:36:07;98379.59;;;21.19;58.71
43814;BME280;29669;55.706;37.656;2023-07-02T05:38:35;98376.69;;;21.31;58.67
43814;BME280;29669;55.706;37.656;2023-07-02T05:41:06;98384.59;;;21.36;58.54
43814;BME280;29669;55.706;37.656;2023-07-02T05:43:38;98381.94;;;21.41;58.48
43814;BME280;29669;55.706;37.656;2023-07-02T05:46:11;98382.72;;;21.57;58.25
43814;BME280;29669;55.706;37.656;2023-07-02T05:48:42;98380.88;;;21.57;58.16
43814;BME280;29669;55.706;37.656;2023-07-02T05:51:20;98384.81;;;21.60;57.96
43814;BME280;29669;55.706;37.656;2023-07-02T05:53:51;98380.88;;;21.52;57.88
43814;BME280;29669;55.706;37.656;2023-07-02T05:56:19;98386.69;;;21.49;57.71
43814;BME280;29669;55.706;37.656;2023-07-02T05:58:48;98387.72;;;21.58;57.62
43814;BME280;29669;55.706;37.656;2023-07-02T06:01:17;98386.63;;;21.69;57.67
43814;BME280;29669;55.706;37.656;2023-07-02T06:03:49;98384.28;;;21.83;57.11
43814;BME280;29669;55.706;37.656;2023-07-02T06:06:18;98397.19;;;21.94;57.10
43814;BME280;29669;55.706;37.656;2023-07-02T06:08:56;98399.31;;;21.92;56.69
43814;BME280;29669;55.706;37.656;2023-07-02T06:11:44;98396.63;;;21.97;56.91
43814;BME280;29669;55.706;37.656;2023-07-02T06:14:12;98396.59;;;22.17;56.41
43814;BME280;29669;55.706;37.656;2023-07-02T06:16:43;98395.44;;;22.38;56.12
43814;BME280;29669;55.706;37.656;2023-07-02T06:19:13;98393.53;;;22.49;55.79
43814;BME280;29669;55.706;37.656;2023-07-02T06:22:02;98390.06;;;22.59;55.24
43814;BME280;29669;55.706;37.656;2023-07-02T06:25:00;98400.59;;;22.69;54.88
43814;BME280;29669;55.706;37.656;2023-07-02T06:28:01;98401.88;;;22.71;54.67
43814;BME280;29669;55.706;37.656;2023-07-02T06:30:29;98395.25;;;22.74;54.18
43814;BME280;29669;55.706;37.656;2023-07-02T06:32:56;98399.31;;;23.00;53.78
43814;BME280;29669;55.706;37.656;2023-07-02T06:35:24;98393.81;;;23.30;53.40
43814;BME280;29669;55.706;37.656;2023-07-02T06:37:52;98393.81;;;23.25;52.96
43814;BME280;29669;55.706;37.656;2023-07-02T06:40:20;98397.28;;;23.25;53.18
43814;BME280;29669;55.706;37.656;2023-07-02T06:52:40;98399.81;;;23.41;52.63
43814;BME280;29669;55.706;37.656;2023-07-02T06:55:27;98395.56;;;23.40;51.97
43814;BME280;29669;55.706;37.656;2023-07-02T06:58:17;98399.53;;;23.42;51.85
43814;BME280;29669;55.706;37.656;2023-07-02T07:00:45;98392.78;;;23.55;51.47
43814;BME280;29669;55.706;37.656;2023-07-02T07:03:14;98405.16;;;23.64;50.96
43814;BME280;29669;55.706;37.656;2023-07-02T07:05:46;98398.50;;;23.67;50.52
43814;BME280;29669;55.706;37.656;2023-07-02T07:08:17;98403.59;;;23.58;49.85
43814;BME280;29669;55.706;37.656;2023-07-02T07:10:45;98398.94;;;23.50;49.71
43814;BME280;29669;55.706;37.656;2023-07-02T07:13:15;98399.06;;;23.35;50.02
43814;BME280;29669;55.706;37.656;2023-07-02T07:15:43;98394.84;;;23.34;49.90
43814;BME280;29669;55.706;37.656;2023-07-02T07:18:11;98405.63;;;23.43;49.80
43814;BME280;29669;55.706;37.656;2023-07-02T07:20:41;98409.53;;;23.50;49.75
43814;BME280;29669;55.706;37.656;2023-07-02T07:23:09;98406.75;;;23.65;49.71
43814;BME280;29669;55.706;37.656;2023-07-02T07:36:08;98410.81;;;24.71;46.52
43814;BME280;29669;55.706;37.656;2023-07-02T07:44:18;98412.75;;;24.65;46.55
43814;BME280;29669;55.706;37.656;2023-07-02T07:57:45;98413.88;;;25.66;45.05
43814;BME280;29669;55.706;37.656;2023-07-02T08:01:03;98420.81;;;25.48;44.66
43814;BME280;29669;55.706;37.656;2023-07-02T08:03:37;98423.72;;;25.14;44.99
43814;BME280;29669;55.706;37.656;2023-07-02T08:06:10;98420.88;;;25.11;44.89
43814;BME280;29669;55.706;37.656;2023-07-02T08:08:53;98424.78;;;25.32;44.71
43814;BME280;29669;55.706;37.656;2023-07-02T08:11:24;98419.25;;;25.61;44.02
43814;BME280;29669;55.706;37.656;2023-07-02T08:13:55;98412.78;;;25.80;43.55
43814;BME280;29669;55.706;37.656;2023-07-02T08:16:58;98420.28;;;25.92;42.55
43814;BME280;29669;55.706;37.656;2023-07-02T08:31:31;98410.31;;;25.25;43.88
43814;BME280;29669;55.706;37.656;2023-07-02T08:34:16;98423.41;;;25.35;44.34
43814;BME280;29669;55.706;37.656;2023-07-02T08:36:53;98425.72;;;25.23;43.54
43814;BME280;29669;55.706;37.656;2023-07-02T08:39:21;98417.34;;;24.97;43.89
43814;BME280;29669;55.706;37.656;2023-07-02T08:41:49;98423.97;;;24.99;44.14
43814;BME280;29669;55.706;37.656;2023-07-02T08:44:22;98421.16;;;25.09;43.74
43814;BME280;29669;55.706;37.656;2023-07-02T08:46:56;98413.31;;;25.18;43.44
43814;BME280;29669;55.706;37.656;2023-07-02T08:49:24;98418.94;;;25.49;43.18
43814;BME280;29669;55.706;37.656;2023-07-02T08:51:52;98423.63;;;25.84;42.84
43814;BME280;29669;55.706;37.656;2023-07-02T08:54:20;98413.72;;;26.17;42.09
43814;BME280;29669;55.706;37.656;2023-07-02T08:56:48;98420.53;;;26.36;41.91
43814;BME280;29669;55.706;37.656;2023-07-02T08:59:15;98430.63;;;26.48;41.28
43814;BME280;29669;55.706;37.656;2023-07-02T09:01:48;98429.06;;;26.47;40.59
43814;BME280;29669;55.706;37.656;2023-07-02T09:04:23;98420.41;;;26.41;40.44
43814;BME280;29669;55.706;37.656;2023-07-02T09:07:05;98420.59;;;26.45;40.26
43814;BME280;29669;55.706;37.656;2023-07-02T09:09:44;98412.13;;;26.29;40.30
43814;BME280;29669;55.706;37.656;2023-07-02T09:15:05;98426.41;;;25.92;40.16
43814;BME280;29669;55.706;37.656;2023-07-02T09:17:36;98423.50;;;26.08;40.03
43814;BME280;29669;55.706;37.656;2023-07-02T09:20:05;98427.72;;;26.36;39.61
43814;BME280;29669;55.706;37.656;2023-07-02T09:22:36;98421.66;;;26.57;39.32
43814;BME280;29669;55.706;37.656;2023-07-02T09:25:04;98433.41;;;26.43;39.32
43814;BME280;29669;55.706;37.656;2023-07-02T09:27:40;98436.78;;;26.08;39.17
43814;BME280;29669;55.706;37.656;2023-07-02T09:30:11;98435.00;;;25.57;39.75
43814;BME280;29669;55.706;37.656;2023-07-02T09:32:44;98446.59;;;25.29;40.49
43814;BME280;29669;55.706;37.656;2023-07-02T09:35:13;98435.97;;;25.29;40.75
43814;BME280;29669;55.706;37.656;2023-07-02T09:37:43;98432.63;;;25.56;40.32
43814;BME280;29669;55.706;37.656;2023-07-02T09:40:12;98437.94;;;26.01;39.96
43814;BME280;29669;55.706;37.656;2023-07-02T09:42:40;98422.00;;;26.15;39.46
43814;BME280;29669;55.706;37.656;2023-07-02T09:45:10;98424.75;;;26.24;39.40
43814;BME280;29669;55.706;37.656;2023-07-02T09:47:43;98428.69;;;26.40;39.32
43814;BME280;29669;55.706;37.656;2023-07-02T09:50:16;98417.44;;;26.43;38.48
43814;BME280;29669;55.706;37.656;2023-07-02T09:52:46;98417.47;;;26.29;38.12
43814;BME280;29669;55.706;37.656;2023-07-02T09:55:14;98417.56;;;26.11;37.60
43814;BME280;29669;55.706;37.656;2023-07-02T09:57:45;98414.59;;;26.12;37.87
43814;BME280;29669;55.706;37.656;2023-07-02T10:00:14;98418.56;;;26.15;36.54
43814;BME280;29669;55.706;37.656;2023-07-02T10:02:48;98421.22;;;26.28;36.55
43814;BME280;29669;55.706;37.656;2023-07-02T10:05:32;98424.75;;;26.24;36.51
43814;BME280;29669;55.706;37.656;2023-07-02T10:08:15;98427.22;;;26.06;36.43
43814;BME280;29669;55.706;37.656;2023-07-02T10:10:45;98428.59;;;26.04;36.39
43814;BME280;29669;55.706;37.656;2023-07-02T10:13:13;98416.78;;;26.10;36.07
43814;BME280;29669;55.706;37.656;2023-07-02T10:15:40;98424.66;;;26.29;36.05
43814;BME280;29669;55.706;37.656;2023-07-02T10:18:09;98420.78;;;26.35;36.08
43814;BME280;29669;55.706;37.656;2023-07-02T10:20:41;98417.06;;;26.36;35.94
43814;BME280;29669;55.706;37.656;2023-07-02T10:23:09;98425.13;;;26.31;36.10
43814;BME280;29669;55.706;37.656;2023-07-02T10:25:37;98417.44;;;26.43;36.17
43814;BME280;29669;55.706;37.656;2023-07-02T10:28:19;98413.09;;;26.60;35.78
43814;BME280;29669;55.706;37.656;2023-07-02T10:30:50;98422.94;;;26.60;36.04
43814;BME280;29669;55.706;37.656;2023-07-02T10:33:20;98423.44;;;26.48;36.33
43814;BME280;29669;55.706;37.656;2023-07-02T10:35:49;98422.97;;;26.33;36.70
43814;BME280;29669;55.706;37.656;2023-07-02T10:38:22;98432.59;;;26.01;37.24
43814;BME280;29669;55.706;37.656;2023-07-02T10:40:57;98437.28;;;25.64;37.98
43814;BME280;29669;55.706;37.656;2023-07-02T10:43:26;98434.03;;;25.35;38.74
43814;BME280;29669;55.706;37.656;2023-07-02T10:46:02;98443.13;;;25.15;38.73
43814;BME280;29669;55.706;37.656;2023-07-02T10:48:51;98443.97;;;25.10;39.14
43814;BME280;29669;55.706;37.656;2023-07-02T10:51:19;98438.63;;;25.29;39.08
43814;BME280;29669;55.706;37.656;2023-07-02T10:53:59;98442.22;;;25.57;38.49
43814;BME280;29669;55.706;37.656;2023-07-02T10:56:28;98440.50;;;26.06;37.98
43814;BME280;29669;55.706;37.656;2023-07-02T10:58:56;98446.41;;;26.58;37.61
43814;BME280;29669;55.706;37.656;2023-07-02T11:01:27;98448.19;;;26.76;36.64
43814;BME280;29669;55.706;37.656;2023-07-02T11:04:03;98443.72;;;26.85;36.60
43814;BME280;29669;55.706;37.656;2023-07-02T11:06:32;98447.41;;;26.97;36.27
43814;BME280;29669;55.706;37.656;2023-07-02T11:09:01;98444.38;;;26.90;35.94
43814;BME280;29669;55.706;37.656;2023-07-02T11:11:28;98455.69;;;26.74;36.40
43814;BME280;29669;55.706;37.656;2023-07-02T11:13:56;98463.72;;;26.69;36.26
43814;BME280;29669;55.706;37.656;2023-07-02T11:16:28;98443.38;;;26.51;36.48
43814;BME280;29669;55.706;37.656;2023-07-02T11:19:07;98449.69;;;26.28;36.75
43814;BME280;29669;55.706;37.656;2023-07-02T11:21:36;98447.41;;;26.35;36.61
43814;BME280;29669;55.706;37.656;2023-07-02T11:24:07;98438.72;;;26.56;36.38
43814;BME280;29669;55.706;37.656;2023-07-02T11:26:38;98448.25;;;26.84;35.96
43814;BME280;29669;55.706;37.656;2023-07-02T11:29:10;98444.63;;;27.38;35.34
43814;BME280;29669;55.706;37.656;2023-07-02T11:31:38;98449.13;;;27.82;35.02
43814;BME280;29669;55.706;37.656;2023-07-02T11:34:16;98441.78;;;28.27;34.10
43814;BME280;29669;55.706;37.656;2023-07-02T11:36:45;98438.50;;;28.30;33.50
43814;BME280;29669;55.706;37.656;2023-07-02T11:39:14;98435.81;;;28.21;33.74
43814;BME280;29669;55.706;37.656;2023-07-02T11:41:44;98440.53;;;28.24;33.39
43814;BME280;29669;55.706;37.656;2023-07-02T11:44:12;98442.69;;;28.14;33.53
43814;BME280;29669;55.706;37.656;2023-07-02T11:46:40;98438.16;;;27.92;33.33
43814;BME280;29669;55.706;37.656;2023-07-02T11:49:07;98447.44;;;27.64;33.26
43814;BME280;29669;55.706;37.656;2023-07-02T11:51:36;98449.34;;;27.41;33.62
43814;BME280;29669;55.706;37.656;2023-07-02T11:54:16;98450.16;;;27.28;33.66
43814;BME280;29669;55.706;37.656;2023-07-02T11:57:00;98458.16;;;27.28;33.58
43814;BME280;29669;55.706;37.656;2023-07-02T11:59:42;98451.38;;;27.00;33.58
43814;BME280;29669;55.706;37.656;2023-07-02T12:02:48;98453.94;;;26.91;33.55
43814;BME280;29669;55.706;37.656;2023-07-02T12:05:18;98449.13;;;26.80;33.13
43814;BME280;29669;55.706;37.656;2023-07-02T12:08:24;98446.41;;;26.58;33.43
43814;BME280;29669;55.706;37.656;2023-07-02T12:52:53;98440.69;;;33.33;24.47
43814;BME280;29669;55.706;37.656;2023-07-02T12:55:24;98452.66;;;33.07;23.73
43814;BME280;29669;55.706;37.656;2023-07-02T12:57:52;98451.19;;;32.46;24.37
43814;BME280;29669;55.706;37.656;2023-07-02T13:00:23;98445.06;;;30.91;25.36
43814;BME280;29669;55.706;37.656;2023-07-02T13:02:54;98441.75;;;29.51;27.25
43814;BME280;29669;55.706;37.656;2023-07-02T13:05:31;98444.56;;;28.61;28.20
43814;BME280;29669;55.706;37.656;2023-07-02T13:08:00;98452.38;;;28.49;28.88
43814;BME280;29669;55.706;37.656;2023-07-02T13:10:31;98444.09;;;30.08;27.09
43814;BME280;29669;55.706;37.656;2023-07-02T13:13:00;98445.94;;;32.13;25.02
43814;BME280;29669;55.706;37.656;2023-07-02T13:15:44;98445.16;;;32.25;24.31
43814;BME280;29669;55.706;37.656;2023-07-02T13:18:12;98450.78;;;33.08;23.49
43814;BME280;29669;55.706;37.656;2023-07-02T13:20:40;98432.44;;;33.53;22.70
43814;BME280;29669;55.706;37.656;2023-07-02T13:23:08;98435.47;;;33.67;22.42
43814;BME280;29669;55.706;37.656;2023-07-02T13:25:36;98446.88;;;34.07;22.20
43814;BME280;29669;55.706;37.656;2023-07-02T13:28:04;98447.19;;;34.53;21.50
43814;BME280;29669;55.706;37.656;2023-07-02T13:30:35;98452.56;;;35.03;21.17
43814;BME280;29669;55.706;37.656;2023-07-02T13:33:03;98460.72;;;35.45;20.26
43814;BME280;29669;55.706;37.656;2023-07-02T13:35:31;98433.13;;;35.77;19.77
43814;BME280;29669;55.706;37.656;2023-07-02T13:38:00;98437.38;;;35.98;19.50
43814;BME280;29669;55.706;37.656;2023-07-02T13:40:28;98436.28;;;36.28;19.56
43814;BME280;29669;55.706;37.656;2023-07-02T13:42:56;98438.72;;;36.37;19.76
43814;BME280;29669;55.706;37.656;2023-07-02T13:45:24;98445.00;;;36.97;19.49
43814;BME280;29669;55.706;37.656;2023-07-02T13:47:52;98453.09;;;36.97;18.67
43814;BME280;29669;55.706;37.656;2023-07-02T13:50:22;98436.53;;;36.72;19.12
43814;BME280;29669;55.706;37.656;2023-07-02T13:52:50;98432.19;;;37.27;19.00
43814;BME280;29669;55.706;37.656;2023-07-02T13:55:19;98427.81;;;36.04;19.30
43814;BME280;29669;55.706;37.656;2023-07-02T13:57:48;98443.81;;;34.56;21.11
43814;BME280;29669;55.706;37.656;2023-07-02T14:00:17;98451.75;;;35.22;20.48
43814;BME280;29669;55.706;37.656;2023-07-02T14:02:48;98450.00;;;36.16;19.39
43814;BME280;29669;55.706;37.656;2023-07-02T14:05:21;98446.97;;;37.33;18.21
43814;BME280;29669;55.706;37.656;2023-07-02T14:07:51;98451.06;;;37.53;17.66
43814;BME280;29669;55.706;37.656;2023-07-02T14:10:20;98445.66;;;37.20;17.65
43814;BME280;29669;55.706;37.656;2023-07-02T14:12:49;98450.78;;;36.39;17.87
43814;BME280;29669;55.706;37.656;2023-07-02T14:15:17;98448.50;;;35.13;19.39
43814;BME280;29669;55.706;37.656;2023-07-02T14:17:45;98456.13;;;34.91;19.44
43814;BME280;29669;55.706;37.656;2023-07-02T14:20:16;98447.81;;;35.38;19.15
43814;BME280;29669;55.706;37.656;2023-07-02T14:22:45;98449.56;;;36.93;18.38
43814;BME280;29669;55.706;37.656;2023-07-02T14:25:15;98455.41;;;38.05;17.57
43814;BME280;29669;55.706;37.656;2023-07-02T14:27:58;98442.88;;;38.98;16.80
43814;BME280;29669;55.706;37.656;2023-07-02T14:30:26;98443.84;;;37.67;17.64
43814;BME280;29669;55.706;37.656;2023-07-02T14:32:55;98454.84;;;37.12;18.36
43814;BME280;29669;55.706;37.656;2023-07-02T14:35:23;98448.34;;;37.90;17.74
43814;BME280;29669;55.706;37.656;2023-07-02T14:37:54;98442.25;;;39.47;16.63
43814;BME280;29669;55.706;37.656;2023-07-02T14:40:40;98439.19;;;40.54;15.81
43814;BME280;29669;55.706;37.656;2023-07-02T14:43:10;98451.22;;;40.67;15.64
43814;BME280;29669;55.706;37.656;2023-07-02T14:46:02;98451.25;;;40.50;15.91
43814;BME280;29669;55.706;37.656;2023-07-02T14:48:39;98446.19;;;40.55;15.90
43814;BME280;29669;55.706;37.656;2023-07-02T14:51:11;98444.66;;;40.29;15.67
43814;BME280;29669;55.706;37.656;2023-07-02T14:53:39;98454.78;;;40.01;15.65
43814;BME280;29669;55.706;37.656;2023-07-02T14:56:14;98456.25;;;39.60;15.52
43814;BME280;29669;55.706;37.656;2023-07-02T14:58:42;98445.97;;;38.97;16.44
43814;BME280;29669;55.706;37.656;2023-07-02T15:01:10;98459.66;;;39.21;16.17
43814;BME280;29669;55.706;37.656;2023-07-02T15:03:41;98455.84;;;39.47;15.98
43814;BME280;29669;55.706;37.656;2023-07-02T15:06:16;98450.22;;;38.29;16.27
43814;BME280;29669;55.706;37.656;2023-07-02T15:08:45;98452.22;;;38.36;16.55
43814;BME280;29669;55.706;37.656;2023-07-02T15:11:14;98462.19;;;38.83;16.37
43814;BME280;29669;55.706;37.656;2023-07-02T15:13:42;98461.84;;;38.95;15.91
43814;BME280;29669;55.706;37.656;2023-07-02T15:16:11;98467.81;;;39.28;15.65
43814;BME280;29669;55.706;37.656;2023-07-02T15:18:40;98462.88;;;39.66;15.60
43814;BME280;29669;55.706;37.656;2023-07-02T15:25:09;98456.34;;;40.12;15.51
43814;BME280;29669;55.706;37.656;2023-07-02T15:28:12;98471.72;;;39.41;16.17
43814;BME280;29669;55.706;37.656;2023-07-02T15:31:01;98458.53;;;38.07;16.86
43814;BME280;29669;55.706;37.656;2023-07-02T15:33:49;98454.50;;;35.86;18.63
43814;BME280;29669;55.706;37.656;2023-07-02T15:36:19;98455.69;;;35.05;19.51
43814;BME280;29669;55.706;37.656;2023-07-02T15:38:53;98451.44;;;35.65;18.95
43814;BME280;29669;55.706;37.656;2023-07-02T15:45:05;98457.25;;;38.37;17.20
43814;BME280;29669;55.706;37.656;2023-07-02T15:48:31;98453.34;;;39.03;16.83
43814;BME280;29669;55.706;37.656;2023-07-02T15:51:20;98451.56;;;39.46;16.48
43814;BME280;29669;55.706;37.656;2023-07-02T15:54:23;98457.75;;;39.29;16.60
43814;BME280;29669;55.706;37.656;2023-07-02T15:57:06;98454.84;;;37.45;17.58
43814;BME280;29669;55.706;37.656;2023-07-02T15:59:58;98458.00;;;34.72;19.98
43814;BME280;29669;55.706;37.656;2023-07-02T16:03:24;98465.31;;;34.21;20.40
43814;BME280;29669;55.706;37.656;2023-07-02T16:06:21;98460.53;;;33.00;21.61
43814;BME280;29669;55.706;37.656;2023-07-02T16:08:52;98461.69;;;31.91;22.58
43814;BME280;29669;55.706;37.656;2023-07-02T16:11:28;98461.13;;;30.70;23.74
43814;BME280;29669;55.706;37.656;2023-07-02T16:14:00;98454.91;;;30.78;24.07
43814;BME280;29669;55.706;37.656;2023-07-02T16:17:03;98460.88;;;31.25;23.67
43814;BME280;29669;55.706;37.656;2023-07-02T16:20:10;98455.59;;;32.90;22.49
43814;BME280;29669;55.706;37.656;2023-07-02T16:22:54;98456.72;;;34.00;21.23
43814;BME280;29669;55.706;37.656;2023-07-02T16:25:35;98455.25;;;35.22;20.44
43814;BME280;29669;55.706;37.656;2023-07-02T16:47:38;98465.53;;;35.77;19.94
43814;BME280;29669;55.706;37.656;2023-07-02T16:51:19;98458.59;;;35.76;20.09
43814;BME280;29669;55.706;37.656;2023-07-02T16:54:47;98457.72;;;35.12;20.42
43814;BME280;29669;55.706;37.656;2023-07-02T16:58:06;98458.16;;;34.44;21.20
43814;BME280;29669;55.706;37.656;2023-07-02T17:01:11;98449.09;;;33.59;21.78
43814;BME280;29669;55.706;37.656;2023-07-02T17:04:13;98462.53;;;33.03;22.14
43814;BME280;29669;55.706;37.656;2023-07-02T17:06:53;98464.84;;;32.65;22.42
43814;BME280;29669;55.706;37.656;2023-07-02T17:09:37;98466.63;;;32.73;22.37